createdAt,value
2022-10-21T00:00:22.382Z,22.1
2022-10-21T00:15:22.341Z,22.1
2022-10-21T00:30:22.352Z,22.5
2022-10-21T00:45:22.263Z,22.7
2022-10-21T01:00:22.296Z,23
2022-10-21T01:15:22.223Z,22.9
2022-10-21T01:30:22.238Z,22.5
2022-10-21T01:45:22.164Z,22.7
2022-10-21T02:00:22.228Z,22.7
2022-10-21T02:15:22.097Z,22.7
2022-10-21T02:30:22.133Z,22.7
2022-10-21T02:45:22.062Z,22.9
2022-10-21T03:00:22.101Z,23.1
2022-10-21T03:15:22.012Z,23.2
2022-10-21T03:30:22.010Z,23.2
2022-10-21T03:45:21.960Z,23.3
2022-10-21T04:00:21.964Z,23.2
2022-10-21T04:15:21.915Z,23.2
2022-10-21T04:30:21.913Z,23.2
2022-10-21T04:45:21.887Z,23
2022-10-21T05:00:21.848Z,22.9
2022-10-21T05:15:21.811Z,22.9
2022-10-21T05:30:21.791Z,22.9
2022-10-21T05:45:21.765Z,22.8
2022-10-21T06:00:21.734Z,22.7
2022-10-21T06:15:21.799Z,22.3
2022-10-21T06:30:21.678Z,21.9
2022-10-21T06:45:21.629Z,21.1
2022-10-21T07:00:21.677Z,20.7
2022-10-21T07:15:21.599Z,19.9
2022-10-21T07:30:21.577Z,19.3
2022-10-21T07:45:21.517Z,18.1
2022-10-21T08:00:21.638Z,16.9
2022-10-21T08:15:21.470Z,16.2
2022-10-21T08:30:21.480Z,15.8
2022-10-21T08:45:21.436Z,15.4
2022-10-21T09:00:21.407Z,15.2
2022-10-21T09:15:21.413Z,15.2
2022-10-21T09:30:21.341Z,15.3
2022-10-21T09:45:21.338Z,15.3
2022-10-21T10:00:21.311Z,15.3
2022-10-21T10:15:21.282Z,15.3
2022-10-21T10:30:21.263Z,15.3
2022-10-21T10:45:21.256Z,15.4
2022-10-21T11:00:21.227Z,15.3
2022-10-21T11:15:21.208Z,15.4
2022-10-21T11:30:21.217Z,15.5
2022-10-21T11:45:21.158Z,15.5
2022-10-21T12:00:21.148Z,15.6
2022-10-21T12:15:21.132Z,15.7
2022-10-21T12:30:23.579Z,15.8
2022-10-21T12:45:21.096Z,15.8
2022-10-21T13:00:21.114Z,15.9
2022-10-21T13:15:21.019Z,15.9
2022-10-21T13:30:21.034Z,15.8
2022-10-21T14:00:20.942Z,15.9
2022-10-21T14:15:20.938Z,15.8
2022-10-21T14:30:20.951Z,15.6
2022-10-21T14:45:20.872Z,15.4
2022-10-21T15:00:20.854Z,15.5
2022-10-21T15:15:20.867Z,15.4
2022-10-21T15:30:20.864Z,15.3
2022-10-21T15:45:20.799Z,15.2
2022-10-21T16:00:20.806Z,15.3
2022-10-21T16:15:20.750Z,15.3
2022-10-21T16:30:20.759Z,15.2
2022-10-21T16:45:20.832Z,15.3
2022-10-21T17:00:20.693Z,15.3
2022-10-21T17:15:20.656Z,15.5
2022-10-21T17:30:20.670Z,15.6
2022-10-21T17:45:20.628Z,15.5
2022-10-21T18:00:20.609Z,15.3
2022-10-21T18:15:20.614Z,15.1
2022-10-21T18:30:20.565Z,14.9
2022-10-21T18:45:20.548Z,14.9
2022-10-21T19:00:20.506Z,14.8
2022-10-21T19:15:20.505Z,15
2022-10-21T19:30:20.505Z,14.8
2022-10-21T19:45:20.479Z,14.7
2022-10-21T20:00:20.416Z,14.9
2022-10-21T20:15:20.403Z,15
2022-10-21T20:30:20.452Z,14.9
2022-10-21T20:45:20.363Z,14.9
2022-10-21T21:00:20.348Z,14.9
2022-10-21T21:15:20.319Z,15.1
2022-10-21T21:30:20.336Z,15.2
2022-10-21T21:45:20.272Z,15
2022-10-21T22:00:20.255Z,15.1
2022-10-21T22:15:43.303Z,15.5
2022-10-21T22:30:20.254Z,15.3
2022-10-21T22:45:20.203Z,14.9
2022-10-21T23:00:20.167Z,14.8
2022-10-21T23:15:20.165Z,14.7
2022-10-21T23:30:20.141Z,14.6
2022-10-21T23:45:20.107Z,14.5
